KGZH

Details ICAO KGZH
Name MIDDLETON FLD
Region United States
Timezone America/Chicago (UTC-5.0)
Plans Departing 1
Arriving 1
Stats Elevation 259 ft / 79 m (AMSL)
Location 31.415802° -87.044071°
Runways 2
Magnetic Variation 3.067° W
Sunrise 2018-05-24 10:48:31 UTC / 2018-05-24 05:48:31 Local
Sunset 2018-05-25 00:44:26 UTC / 2018-05-24 19:44:26 Local
Advertisement - Login to hide

Runways

ID Width Length Bearing (true) Bearing (mag) Surface Threshold Offset Overrun Length
01 150 ft / 46 m 4,013 ft / 1,223 m 5.32° 8.39° Asphalt 0 ft / 0 m 0 ft / 0 m
10 150 ft / 46 m 3,993 ft / 1,217 m 99.56° 102.63° Asphalt 0 ft / 0 m 0 ft / 0 m
19 150 ft / 46 m 4,013 ft / 1,223 m 185.32° 188.39° Asphalt 0 ft / 0 m 0 ft / 0 m
28 150 ft / 46 m 3,993 ft / 1,217 m 279.56° 282.63° Asphalt 0 ft / 0 m 0 ft / 0 m

Map

Weather


0- 5 10 15 20 25 30 35+ Temperature / ° C

Clouds and Precipitation
Forecast for 2018-05-24 06:00 UTC. Updated an hour ago

Ground ~20,000 ft ~40,000 ft Winds

METAR

KGZH 240553Z AUTO 00000KT 9SM FEW002 21/19 A3007 RMK AO2 SLP179 60000 T02060194 10233 20206 403280206 58008

TAF

Not found

Frequencies

Recorded 133.42 MHz ASOS
Unicom 122.70 MHz CTAF/UNICOM
Warning: Do not use this data for real-world aviation or navigation. No guarantee of current accuracy is given.